createdAt,value
2022-11-07T00:00:29.912Z,68.39
2022-11-07T00:02:58.352Z,68.56
2022-11-07T00:05:26.764Z,68.44
2022-11-07T00:07:55.967Z,68.55
2022-11-07T00:10:26.066Z,68.94
2022-11-07T00:12:54.865Z,69.12
2022-11-07T00:15:24.031Z,69.32
2022-11-07T00:17:51.989Z,69.21
2022-11-07T00:20:22.012Z,69.15
2022-11-07T00:22:50.295Z,69.62
2022-11-07T00:25:18.936Z,69.42
2022-11-07T00:27:48.599Z,69.54
2022-11-07T00:30:17.349Z,69.81
2022-11-07T00:32:45.994Z,69.83
2022-11-07T00:35:14.615Z,69.94
2022-11-07T00:37:43.346Z,69.91
2022-11-07T00:40:12.153Z,69.87
2022-11-07T00:42:41.356Z,70.39
2022-11-07T00:45:13.474Z,70.27
2022-11-07T00:47:41.760Z,70.33
2022-11-07T00:50:10.708Z,70.54
2022-11-07T00:52:39.381Z,70.63
2022-11-07T00:55:08.627Z,70.22
2022-11-07T00:57:37.596Z,70.69
2022-11-07T01:00:26.734Z,70.80
2022-11-07T01:03:17.717Z,70.58
2022-11-07T01:05:57.100Z,70.80
2022-11-07T01:08:25.925Z,70.63
2022-11-07T01:10:54.626Z,70.64
2022-11-07T01:13:23.462Z,71.02
2022-11-07T01:15:53.797Z,71.49
2022-11-07T01:18:22.590Z,71.19
2022-11-07T01:20:51.480Z,71.13
2022-11-07T01:23:20.061Z,71.37
2022-11-07T01:25:47.980Z,71.25
2022-11-07T05:00:10.624Z,74.70
2022-11-07T05:20:59.959Z,74.94
2022-11-07T05:28:56.295Z,75.00
2022-11-07T05:40:14.352Z,75.51
2022-11-07T05:54:52.480Z,76.27
2022-11-07T06:11:25.998Z,76.42
2022-11-07T06:16:37.502Z,76.71
2022-11-07T06:19:05.412Z,76.87
2022-11-07T06:21:33.230Z,76.97
2022-11-07T06:24:00.962Z,76.96
2022-11-07T06:26:30.103Z,77.01
2022-11-07T09:17:32.984Z,63.01
2022-11-07T09:20:02.026Z,62.72
2022-11-07T09:22:29.867Z,62.81
2022-11-07T09:24:57.881Z,62.55
2022-11-07T09:27:25.988Z,61.35
2022-11-07T09:29:53.894Z,60.56
2022-11-07T09:32:43.407Z,59.71
2022-11-07T09:35:11.793Z,59.77
2022-11-07T09:37:40.031Z,59.87
2022-11-07T09:40:23.267Z,59.17
2022-11-07T09:43:02.727Z,59.98
2022-11-07T09:45:32.135Z,59.31
2022-11-07T09:48:06.921Z,58.86
2022-11-07T09:50:41.546Z,59.15
2022-11-07T09:53:18.114Z,58.84
2022-11-07T09:55:52.383Z,59.05
2022-11-07T09:58:26.914Z,58.72
2022-11-07T10:00:58.484Z,59.49
2022-11-07T10:03:26.487Z,59.73
2022-11-07T10:06:04.091Z,60.19
2022-11-07T10:08:40.021Z,59.13
2022-11-07T10:11:14.667Z,59.12
2022-11-07T10:14:00.192Z,57.44
2022-11-07T10:16:40.217Z,57.15
2022-11-07T10:19:21.079Z,56.70
2022-11-07T10:22:08.354Z,56.50
2022-11-07T10:24:55.139Z,56.58
2022-11-07T10:27:23.484Z,56.86
2022-11-07T10:29:54.643Z,57.83
2022-11-07T10:32:27.172Z,57.33
2022-11-07T10:35:07.222Z,57.89
2022-11-07T10:37:36.518Z,58.49
2022-11-07T10:40:15.696Z,58.63
2022-11-07T10:42:45.598Z,58.83
2022-11-07T10:45:15.557Z,58.62
2022-11-07T10:47:44.413Z,55.15
2022-11-07T10:50:20.266Z,54.23
2022-11-07T10:52:55.418Z,53.00
2022-11-07T10:55:24.930Z,51.67
2022-11-07T10:57:57.355Z,51.38
2022-11-07T11:00:34.610Z,50.97
2022-11-07T11:03:02.922Z,51.07
2022-11-07T11:05:43.409Z,51.18
2022-11-07T11:08:18.345Z,51.82
2022-11-07T11:10:47.131Z,51.59
2022-11-07T11:13:28.470Z,51.68
2022-11-07T11:16:04.277Z,50.99
2022-11-07T11:18:33.912Z,50.61
2022-11-07T11:21:03.692Z,48.74
2022-11-07T11:23:42.018Z,48.56
2022-11-07T11:26:26.544Z,48.26
2022-11-07T11:29:04.586Z,46.20
2022-11-07T11:31:40.597Z,45.77
2022-11-07T11:34:14.743Z,45.19
2022-11-07T11:36:51.696Z,45.20
2022-11-07T11:39:30.395Z,44.54
2022-11-07T11:42:00.241Z,42.54
2022-11-07T11:44:36.229Z,42.89
2022-11-07T11:47:12.425Z,42.59
2022-11-07T11:49:44.901Z,38.80
2022-11-07T11:52:17.239Z,39.78
2022-11-07T11:54:47.355Z,39.70
2022-11-07T11:57:19.769Z,40.46
2022-11-07T12:00:02.436Z,43.00
2022-11-07T12:02:50.010Z,43.88
2022-11-07T12:05:30.578Z,45.54
2022-11-07T12:08:12.442Z,45.60
2022-11-07T12:10:48.821Z,47.47
2022-11-07T12:13:24.076Z,49.14
2022-11-07T12:16:04.687Z,49.23
2022-11-07T12:18:39.714Z,49.07
2022-11-07T12:21:23.712Z,50.30
2022-11-07T12:24:04.323Z,50.78
2022-11-07T12:26:41.304Z,50.58
2022-11-07T12:29:35.410Z,51.65
2022-11-07T12:32:13.872Z,52.10
2022-11-07T12:35:01.349Z,51.81
2022-11-07T12:37:43.638Z,52.47
2022-11-07T12:40:26.502Z,53.38
2022-11-07T12:43:07.097Z,53.61
2022-11-07T12:45:46.927Z,52.50
2022-11-07T12:48:48.524Z,51.69
2022-11-07T12:51:27.849Z,51.60
2022-11-07T12:54:03.796Z,51.78
2022-11-07T12:56:34.443Z,51.29
2022-11-07T12:59:11.544Z,50.51
2022-11-07T13:01:45.160Z,51.71
2022-11-07T13:04:20.619Z,52.11
2022-11-07T13:06:54.914Z,50.95
2022-11-07T13:09:30.467Z,51.91
2022-11-07T13:12:09.735Z,52.29
2022-11-07T13:14:43.453Z,52.97
2022-11-07T13:17:18.198Z,52.99
2022-11-07T13:19:59.646Z,52.83
2022-11-07T13:22:34.484Z,52.12
2022-11-07T13:25:24.301Z,52.24
2022-11-07T13:28:08.215Z,52.77
2022-11-07T13:30:39.937Z,52.86
2022-11-07T13:33:23.902Z,53.64
2022-11-07T13:35:55.317Z,54.83
2022-11-07T13:38:25.349Z,55.34
2022-11-07T13:40:58.441Z,55.73
2022-11-07T13:43:28.576Z,54.56
2022-11-07T13:45:59.996Z,55.41
2022-11-07T13:48:32.373Z,54.46
2022-11-07T13:51:06.488Z,55.41
2022-11-07T13:53:40.060Z,55.85
2022-11-07T13:56:17.330Z,55.67
2022-11-07T13:58:47.164Z,56.08
2022-11-07T14:04:24.384Z,56.12
2022-11-07T14:09:36.218Z,57.20
2022-11-07T14:12:04.466Z,56.72
2022-11-07T14:14:32.449Z,56.73
2022-11-07T14:17:02.007Z,57.36
2022-11-07T14:19:44.089Z,56.70
2022-11-07T14:22:24.400Z,58.05
2022-11-07T14:24:54.208Z,56.87
2022-11-07T14:27:24.896Z,57.90
2022-11-07T14:29:53.832Z,57.93
2022-11-07T14:32:22.737Z,58.38
2022-11-07T14:34:54.873Z,58.16
2022-11-07T14:37:24.692Z,58.76
2022-11-07T14:39:53.620Z,59.00
2022-11-07T14:42:24.055Z,58.61
2022-11-07T14:44:55.998Z,58.12
2022-11-07T14:47:28.342Z,58.67
2022-11-07T14:49:59.133Z,58.77
2022-11-07T14:52:33.823Z,58.30
2022-11-07T14:55:08.036Z,59.08
2022-11-07T14:57:38.471Z,58.81
2022-11-07T15:00:07.405Z,58.50
2022-11-07T15:02:36.060Z,58.73
2022-11-07T15:05:10.969Z,59.42
2022-11-07T15:07:49.829Z,59.00
2022-11-07T15:10:28.125Z,59.11
2022-11-07T15:12:58.438Z,59.70
2022-11-07T15:15:28.336Z,59.77
2022-11-07T15:18:00.173Z,59.87
2022-11-07T15:23:35.343Z,59.85
2022-11-07T15:26:12.445Z,59.79
2022-11-07T15:29:15.393Z,60.11
2022-11-07T15:31:48.708Z,60.47
2022-11-07T15:34:33.641Z,59.76
2022-11-07T15:37:12.121Z,60.21
2022-11-07T15:39:41.757Z,60.57
2022-11-07T15:42:09.845Z,60.84
2022-11-07T15:44:38.326Z,61.18
2022-11-07T15:47:07.387Z,61.30
2022-11-07T15:49:36.042Z,61.45
2022-11-07T15:52:04.060Z,60.95
2022-11-07T15:54:32.272Z,61.20
2022-11-07T15:57:05.496Z,61.41
2022-11-07T15:59:36.872Z,61.66
2022-11-07T16:02:05.730Z,61.95
2022-11-07T16:04:39.307Z,61.84
2022-11-07T16:07:12.759Z,61.63
2022-11-07T16:09:40.742Z,61.67
2022-11-07T16:12:14.991Z,61.49
2022-11-07T16:14:44.637Z,61.99
2022-11-07T16:17:14.395Z,62.38
2022-11-07T16:19:42.681Z,62.17
2022-11-07T16:22:11.530Z,62.36
2022-11-07T16:24:39.549Z,62.29
2022-11-07T16:27:08.205Z,62.54
2022-11-07T16:29:44.402Z,62.54
2022-11-07T16:32:37.927Z,62.56
2022-11-07T16:35:10.001Z,62.88
2022-11-07T16:37:43.518Z,62.95
2022-11-07T16:40:36.486Z,62.71
2022-11-07T16:43:06.014Z,63.38
2022-11-07T16:45:52.872Z,63.66
2022-11-07T16:48:50.590Z,63.40
2022-11-07T16:51:22.366Z,64.00
2022-11-07T16:53:50.535Z,63.90
2022-11-07T16:56:26.011Z,63.92
2022-11-07T16:58:55.371Z,64.09
2022-11-07T17:01:26.472Z,64.28
2022-11-07T17:03:55.771Z,63.96
2022-11-07T17:06:28.779Z,63.99
2022-11-07T17:09:05.004Z,63.89
2022-11-07T17:11:37.747Z,64.23
2022-11-07T17:17:18.469Z,64.46
2022-11-07T17:20:34.340Z,64.34
2022-11-07T17:23:07.126Z,64.66
2022-11-07T17:26:09.896Z,64.72
2022-11-07T17:28:38.028Z,64.99
2022-11-07T17:31:06.474Z,64.26
2022-11-07T17:33:36.530Z,64.65
2022-11-07T17:36:05.876Z,64.84
2022-11-07T17:38:34.724Z,65.44
2022-11-07T17:44:18.352Z,64.96
2022-11-07T17:46:51.026Z,65.32
2022-11-07T17:52:57.113Z,65.07
2022-11-07T17:56:15.910Z,65.06
2022-11-07T17:58:59.467Z,65.42
2022-11-07T18:01:36.145Z,65.09
2022-11-07T18:04:16.245Z,65.26
2022-11-07T18:06:49.693Z,65.20
2022-11-07T18:09:49.681Z,65.49
2022-11-07T18:12:18.223Z,65.41
2022-11-07T18:14:46.665Z,65.39
2022-11-07T18:17:16.563Z,65.30
2022-11-07T18:20:02.435Z,65.52
2022-11-07T18:22:56.052Z,65.19
2022-11-07T18:33:04.312Z,65.73
2022-11-07T18:35:41.497Z,65.47
2022-11-07T18:38:35.974Z,66.12
2022-11-07T18:41:28.205Z,66.16
2022-11-07T18:44:05.045Z,66.03
2022-11-07T18:49:46.162Z,66.37
2022-11-07T18:52:22.230Z,66.39
2022-11-07T18:54:54.650Z,66.59
2022-11-07T18:57:26.469Z,66.51
2022-11-07T18:59:54.816Z,66.69
2022-11-07T19:02:25.572Z,66.37
2022-11-07T19:04:53.967Z,66.89
2022-11-07T19:07:27.092Z,67.08
2022-11-07T19:09:57.119Z,67.25
2022-11-07T19:12:27.418Z,67.51
2022-11-07T19:14:56.234Z,67.44
2022-11-07T19:17:27.848Z,67.47
2022-11-07T19:20:11.112Z,67.71
2022-11-07T19:22:39.514Z,67.90
2022-11-07T19:25:10.250Z,68.41
2022-11-07T19:27:38.223Z,68.35
2022-11-07T19:30:11.204Z,68.27
2022-11-07T19:35:59.474Z,68.06
2022-11-07T19:45:48.625Z,69.26
2022-11-07T19:48:18.938Z,69.42
2022-11-07T19:50:50.051Z,69.90
2022-11-07T19:53:21.825Z,69.48
2022-11-07T19:55:51.736Z,69.82
2022-11-07T19:58:24.742Z,70.23
2022-11-07T20:01:02.110Z,70.48
2022-11-07T20:03:31.955Z,71.29
2022-11-07T20:09:04.351Z,71.18
2022-11-07T20:11:32.958Z,71.22
2022-11-07T20:14:03.648Z,71.38
2022-11-07T20:16:34.707Z,71.55
2022-11-07T20:19:03.592Z,71.50
2022-11-07T20:21:33.896Z,71.36
2022-11-07T20:24:02.899Z,71.58
2022-11-07T20:26:33.314Z,71.41
2022-11-07T20:29:01.672Z,71.64
2022-11-07T20:31:36.985Z,71.82
2022-11-07T20:34:10.374Z,71.42
2022-11-07T20:36:40.264Z,71.71
2022-11-07T20:39:10.156Z,72.12
2022-11-07T20:41:42.461Z,72.27
2022-11-07T20:44:15.203Z,72.77
2022-11-07T20:46:47.953Z,72.31
2022-11-07T20:49:25.267Z,72.60
2022-11-07T20:51:56.615Z,72.72
2022-11-07T20:54:32.297Z,72.85
2022-11-07T20:57:03.205Z,72.96
2022-11-07T20:59:32.863Z,72.96
2022-11-07T21:02:04.256Z,73.04
2022-11-07T21:05:10.843Z,72.90
2022-11-07T21:07:32.063Z,72.84
2022-11-07T21:10:02.613Z,72.89
2022-11-07T21:12:33.901Z,72.79
2022-11-07T21:15:04.329Z,72.86
2022-11-07T21:17:35.573Z,73.05
2022-11-07T21:20:09.343Z,72.71
2022-11-07T21:22:42.529Z,72.95
2022-11-07T21:25:13.051Z,73.17
2022-11-07T21:27:42.082Z,72.93
2022-11-07T21:30:15.368Z,72.71
2022-11-07T21:32:45.564Z,73.05
2022-11-07T21:35:19.994Z,73.14
2022-11-07T21:37:49.954Z,72.77
2022-11-07T21:40:20.186Z,72.86
2022-11-07T21:42:48.666Z,73.03
2022-11-07T21:45:17.423Z,73.15
2022-11-07T21:47:46.141Z,73.35
2022-11-07T21:50:43.089Z,73.14
2022-11-07T21:53:05.827Z,72.83
2022-11-07T21:55:36.395Z,73.20
2022-11-07T21:58:05.262Z,73.07
2022-11-07T22:00:37.256Z,73.18
2022-11-07T22:03:06.274Z,73.43
2022-11-07T22:05:39.766Z,73.16
2022-11-07T22:08:07.953Z,73.59
2022-11-07T22:10:35.899Z,73.71
2022-11-07T22:13:05.340Z,73.81
2022-11-07T22:15:33.609Z,73.97
2022-11-07T22:18:01.868Z,73.78
2022-11-07T22:20:29.730Z,74.24
2022-11-07T22:22:59.096Z,74.19
2022-11-07T22:25:26.985Z,74.14
2022-11-07T22:27:55.278Z,74.10
2022-11-07T22:30:23.348Z,73.83
2022-11-07T22:32:51.898Z,74.35
2022-11-07T22:35:19.918Z,74.19
2022-11-07T22:37:48.121Z,74.06
2022-11-07T22:40:20.490Z,74.35
2022-11-07T22:42:49.003Z,74.41
2022-11-07T22:45:17.342Z,74.78
2022-11-07T22:47:45.542Z,75.19
2022-11-07T22:50:13.944Z,75.51
2022-11-07T22:52:42.591Z,75.45
2022-11-07T22:55:11.524Z,75.71
2022-11-07T22:57:43.273Z,75.84
2022-11-07T23:00:21.310Z,76.52
2022-11-07T23:02:50.434Z,76.43
2022-11-07T23:05:19.393Z,76.89
2022-11-07T23:07:51.274Z,76.81
2022-11-07T23:10:19.835Z,76.91
2022-11-07T23:12:49.618Z,77.24
2022-11-07T23:15:18.324Z,77.29
2022-11-07T23:17:46.606Z,77.30
2022-11-07T23:20:35.246Z,77.37
2022-11-07T23:23:05.129Z,77.38
2022-11-07T23:25:33.263Z,77.28
2022-11-07T23:28:04.180Z,77.05
2022-11-07T23:30:33.591Z,77.14
2022-11-07T23:33:02.290Z,77.07
2022-11-07T23:35:32.587Z,76.92
2022-11-07T23:38:00.671Z,77.25
2022-11-07T23:40:28.831Z,77.40
2022-11-07T23:42:56.783Z,77.96
2022-11-07T23:45:43.679Z,78.05
2022-11-07T23:48:31.076Z,78.34
2022-11-07T23:51:03.408Z,78.25
2022-11-07T23:53:50.551Z,78.60
2022-11-07T23:56:19.032Z,78.82
2022-11-07T23:59:04.820Z,78.79
